createdAt,value
2019-05-07T00:01:23.394Z,2.15
2019-05-07T00:03:56.902Z,2.42
2019-05-07T00:06:26.547Z,1.92
2019-05-07T00:08:56.156Z,2.45
2019-05-07T00:11:26.146Z,1.92
2019-05-07T00:13:55.833Z,1.70
2019-05-07T00:16:25.458Z,2.85
2019-05-07T00:18:55.321Z,2.50
2019-05-07T00:21:24.980Z,1.75
2019-05-07T00:23:54.591Z,2.10
2019-05-07T00:26:25.564Z,1.95
2019-05-07T00:28:55.253Z,3.08
2019-05-07T00:31:26.480Z,2.52
2019-05-07T00:33:58.139Z,1.82
2019-05-07T00:36:43.100Z,1.50
2019-05-07T00:39:26.427Z,1.98
2019-05-07T00:42:12.573Z,2.40
2019-05-07T00:45:17.040Z,1.42
2019-05-07T00:47:37.828Z,1.90
2019-05-07T00:50:13.205Z,1.72
2019-05-07T00:52:43.447Z,1.85
2019-05-07T00:55:14.166Z,2.17
2019-05-07T00:57:43.798Z,1.80
2019-05-07T01:00:13.602Z,1.92
2019-05-07T01:02:45.838Z,1.75
2019-05-07T01:05:15.470Z,1.75
2019-05-07T01:07:45.091Z,2.58
2019-05-07T01:10:22.122Z,1.65
2019-05-07T01:12:53.174Z,2.83
2019-05-07T01:15:31.072Z,2.42
2019-05-07T01:17:54.276Z,2.15
2019-05-07T01:20:23.900Z,2.15
2019-05-07T01:22:55.074Z,2.15
2019-05-07T01:25:24.733Z,2.62
2019-05-07T01:27:54.346Z,2.87
2019-05-07T01:30:24.077Z,1.40
2019-05-07T01:33:06.743Z,1.75
2019-05-07T01:35:53.988Z,1.92
2019-05-07T01:38:23.711Z,2.08
2019-05-07T01:40:53.316Z,1.98
2019-05-07T01:43:23.030Z,1.90
2019-05-07T01:45:53.088Z,1.85
2019-05-07T01:48:23.124Z,2.12
2019-05-07T01:50:53.104Z,1.72
2019-05-07T01:53:24.558Z,2.27
2019-05-07T01:55:54.198Z,2.08
2019-05-07T01:58:23.952Z,2.08
2019-05-07T02:00:53.651Z,1.67
2019-05-07T02:03:34.179Z,1.70
2019-05-07T02:06:22.053Z,3.55
2019-05-07T02:09:10.256Z,1.98
2019-05-07T02:11:42.478Z,2.20
2019-05-07T02:14:13.617Z,1.50
2019-05-07T02:16:44.948Z,2.65
2019-05-07T02:19:14.552Z,1.85
2019-05-07T02:21:44.443Z,2.50
2019-05-07T02:24:14.065Z,1.98
2019-05-07T02:26:43.696Z,3.15
2019-05-07T02:29:14.347Z,2.20
2019-05-07T02:31:44.501Z,1.30
2019-05-07T02:34:14.333Z,2.92
2019-05-07T02:36:44.003Z,3.33
2019-05-07T02:39:23.722Z,3.33
2019-05-07T02:41:53.894Z,2.10
2019-05-07T02:44:23.309Z,1.50
2019-05-07T02:47:04.033Z,2.60
2019-05-07T02:49:44.234Z,2.20
2019-05-07T02:52:23.483Z,3.08
2019-05-07T02:55:07.033Z,2.80
2019-05-07T02:57:39.175Z,2.40
2019-05-07T03:00:14.702Z,1.70
2019-05-07T03:02:53.450Z,2.65
2019-05-07T03:05:23.364Z,2.33
2019-05-07T03:07:53.733Z,1.60
2019-05-07T03:10:24.164Z,2.35
2019-05-07T03:12:56.438Z,2.12
2019-05-07T03:15:26.052Z,2.33
2019-05-07T03:17:58.286Z,1.85
2019-05-07T03:20:34.456Z,2.45
2019-05-07T03:23:08.420Z,2.22
2019-05-07T03:26:15.245Z,2.47
2019-05-07T03:29:03.617Z,2.00
2019-05-07T03:31:56.375Z,3.10
2019-05-07T03:34:57.192Z,3.92
2019-05-07T03:37:26.307Z,1.90
2019-05-07T03:39:55.930Z,2.60
2019-05-07T03:42:25.567Z,1.85
2019-05-07T03:45:13.851Z,1.40
2019-05-07T03:47:45.995Z,2.47
2019-05-07T03:50:15.700Z,2.62
2019-05-07T03:52:46.621Z,2.45
2019-05-07T03:55:16.326Z,2.35
2019-05-07T03:57:45.955Z,1.92
2019-05-07T04:00:16.413Z,2.15
2019-05-07T04:02:46.048Z,3.77
2019-05-07T04:05:15.918Z,2.37
2019-05-07T04:07:45.546Z,2.35
2019-05-07T04:10:15.612Z,2.40
2019-05-07T04:12:45.422Z,2.75
2019-05-07T04:15:23.318Z,2.58
2019-05-07T04:17:53.646Z,3.15
2019-05-07T04:20:24.093Z,2.40
2019-05-07T04:22:53.892Z,1.90
2019-05-07T04:25:43.583Z,2.17
2019-05-07T04:28:33.428Z,1.77
2019-05-07T04:31:03.979Z,1.90
2019-05-07T04:33:38.009Z,2.50
2019-05-07T04:36:14.140Z,2.40
2019-05-07T04:38:44.309Z,2.05
2019-05-07T04:41:14.173Z,3.12
2019-05-07T04:43:43.920Z,1.92
2019-05-07T04:46:14.367Z,4.42
2019-05-07T04:48:44.446Z,1.90
2019-05-07T04:51:18.016Z,2.08
2019-05-07T04:53:47.635Z,1.95
2019-05-07T04:56:17.260Z,2.25
2019-05-07T04:58:46.906Z,1.70
2019-05-07T05:01:18.196Z,2.35
2019-05-07T05:03:47.912Z,2.75
2019-05-07T05:06:17.627Z,2.75
2019-05-07T05:08:47.263Z,1.75
2019-05-07T05:11:16.956Z,1.52
2019-05-07T05:13:46.649Z,2.30
2019-05-07T05:16:28.140Z,2.12
2019-05-07T05:18:58.426Z,1.60
2019-05-07T05:21:45.586Z,1.62
2019-05-07T05:24:29.557Z,1.47
2019-05-07T05:27:02.664Z,1.10
2019-05-07T05:29:33.671Z,1.10
2019-05-07T05:32:07.195Z,1.25
2019-05-07T05:34:36.872Z,1.35
2019-05-07T05:37:06.909Z,2.80
2019-05-07T05:39:36.539Z,1.85
2019-05-07T05:42:17.949Z,2.00
2019-05-07T05:44:49.747Z,1.87
2019-05-07T05:47:23.941Z,1.90
2019-05-07T05:49:55.182Z,1.85
2019-05-07T05:52:35.668Z,1.57
2019-05-07T05:55:12.013Z,1.60
2019-05-07T05:58:04.968Z,1.62
2019-05-07T06:00:53.027Z,1.72
2019-05-07T06:03:48.392Z,1.85
2019-05-07T06:06:35.749Z,2.15
2019-05-07T06:09:26.557Z,1.85
2019-05-07T06:12:22.136Z,1.70
2019-05-07T06:14:55.778Z,1.50
2019-05-07T06:17:42.555Z,1.70
2019-05-07T06:20:32.067Z,2.10
2019-05-07T06:23:26.369Z,1.20
2019-05-07T06:25:56.004Z,2.00
2019-05-07T06:28:27.107Z,1.80
2019-05-07T06:30:56.790Z,1.35
2019-05-07T06:33:26.406Z,1.30
2019-05-07T06:35:56.052Z,2.00
2019-05-07T06:38:27.334Z,1.12
2019-05-07T06:41:19.455Z,1.87
2019-05-07T06:44:02.139Z,1.90
2019-05-07T06:46:34.280Z,2.12
2019-05-07T06:49:03.958Z,1.92
2019-05-07T06:51:33.583Z,1.50
2019-05-07T06:54:03.307Z,1.85
2019-05-07T06:56:32.947Z,1.50
2019-05-07T06:59:22.499Z,1.65
2019-05-07T07:02:09.732Z,1.20
2019-05-07T07:04:45.701Z,1.70
2019-05-07T07:07:43.048Z,1.55
2019-05-07T07:10:26.162Z,1.90
2019-05-07T07:12:55.813Z,2.52
2019-05-07T07:15:25.462Z,1.40
2019-05-07T07:18:03.292Z,2.05
2019-05-07T07:20:33.165Z,2.25
2019-05-07T07:23:02.806Z,1.70
2019-05-07T07:25:34.288Z,1.50
2019-05-07T07:28:04.015Z,1.62
2019-05-07T07:30:42.588Z,2.95
2019-05-07T07:33:14.717Z,1.85
2019-05-07T07:35:44.343Z,1.92
2019-05-07T07:38:32.885Z,1.90
2019-05-07T07:41:12.717Z,1.65
2019-05-07T07:43:43.474Z,1.80
2019-05-07T07:46:16.205Z,1.60
2019-05-07T07:48:44.538Z,1.72
2019-05-07T07:51:14.407Z,1.95
2019-05-07T07:53:45.807Z,1.67
2019-05-07T07:56:47.838Z,1.30
2019-05-07T07:59:26.932Z,1.60
2019-05-07T08:02:03.602Z,1.35
2019-05-07T08:04:33.325Z,2.25
2019-05-07T08:07:03.170Z,1.90
2019-05-07T08:09:34.309Z,1.37
2019-05-07T08:12:04.988Z,2.30
2019-05-07T08:14:34.658Z,1.22
2019-05-07T08:17:06.793Z,1.87
2019-05-07T08:19:38.214Z,1.60
2019-05-07T08:22:08.938Z,1.60
2019-05-07T08:24:38.567Z,2.08
2019-05-07T08:27:08.402Z,1.80
2019-05-07T08:29:38.016Z,1.82
2019-05-07T08:32:32.720Z,1.50
2019-05-07T08:35:21.982Z,1.52
2019-05-07T08:37:51.888Z,1.40
2019-05-07T08:40:22.630Z,2.00
2019-05-07T08:42:52.781Z,2.20
2019-05-07T08:45:43.174Z,1.47
2019-05-07T08:48:26.328Z,1.80
2019-05-07T08:50:55.947Z,1.47
2019-05-07T08:53:29.902Z,1.90
2019-05-07T08:56:03.208Z,1.25
2019-05-07T08:58:32.718Z,1.55
2019-05-07T09:01:04.303Z,1.55
2019-05-07T09:03:43.182Z,2.17
2019-05-07T09:06:14.605Z,1.70
2019-05-07T09:08:44.297Z,1.52
2019-05-07T09:11:14.905Z,1.92
2019-05-07T09:13:44.667Z,2.15
2019-05-07T09:16:14.348Z,1.42
2019-05-07T09:18:43.995Z,1.37
2019-05-07T09:21:16.088Z,1.02
2019-05-07T09:23:46.856Z,1.80
2019-05-07T09:26:18.815Z,1.95
2019-05-07T09:29:13.404Z,1.30
2019-05-07T09:32:02.910Z,1.72
2019-05-07T09:34:41.593Z,1.82
2019-05-07T09:37:13.336Z,1.40
2019-05-07T09:39:42.962Z,1.90
2019-05-07T09:42:12.587Z,1.72
2019-05-07T09:44:42.528Z,1.60
2019-05-07T09:47:24.743Z,1.40
2019-05-07T09:50:03.858Z,1.75
2019-05-07T09:52:25.763Z,1.10
2019-05-07T09:54:55.445Z,1.45
2019-05-07T09:57:30.983Z,1.98
2019-05-07T10:00:02.400Z,2.00
2019-05-07T10:02:32.268Z,1.70
2019-05-07T10:05:02.524Z,1.82
2019-05-07T10:07:32.667Z,1.10
2019-05-07T10:10:03.251Z,2.05
2019-05-07T10:12:57.434Z,1.90
2019-05-07T10:15:27.412Z,1.52
2019-05-07T10:18:12.417Z,2.75
2019-05-07T10:20:42.378Z,1.75
2019-05-07T10:23:22.799Z,1.72
2019-05-07T10:25:54.192Z,1.52
2019-05-07T10:28:24.559Z,1.70
2019-05-07T10:30:55.096Z,1.42
2019-05-07T10:33:28.002Z,1.52
2019-05-07T10:35:57.784Z,1.80
2019-05-07T10:38:27.504Z,1.77
2019-05-07T10:40:57.128Z,1.70
2019-05-07T10:43:26.858Z,1.67
2019-05-07T10:46:23.839Z,1.32
2019-05-07T10:49:02.058Z,1.20
2019-05-07T10:51:32.271Z,1.62
2019-05-07T10:54:02.328Z,1.80
2019-05-07T10:56:32.669Z,1.60
2019-05-07T10:59:03.019Z,1.52
2019-05-07T11:01:42.615Z,3.05
2019-05-07T11:04:12.801Z,1.52
2019-05-07T11:06:42.658Z,1.35
2019-05-07T11:09:12.289Z,1.92
2019-05-07T11:11:42.396Z,1.55
2019-05-07T11:14:13.141Z,1.52
2019-05-07T11:16:53.168Z,2.00
2019-05-07T11:19:22.816Z,1.67
2019-05-07T11:21:52.512Z,1.30
2019-05-07T11:24:25.084Z,1.75
2019-05-07T11:26:57.259Z,1.77
2019-05-07T11:29:27.010Z,1.00
2019-05-07T11:31:56.757Z,2.60
2019-05-07T11:34:26.464Z,2.83
2019-05-07T11:36:56.202Z,2.65
2019-05-07T11:39:28.508Z,1.60
2019-05-07T11:42:15.880Z,1.57
2019-05-07T11:44:45.489Z,1.35
2019-05-07T11:47:22.544Z,1.70
2019-05-07T11:50:22.600Z,1.65
2019-05-07T11:53:00.995Z,1.45
2019-05-07T11:55:30.914Z,1.75
2019-05-07T11:58:02.301Z,2.20
2019-05-07T12:00:42.612Z,2.08
2019-05-07T12:03:12.368Z,2.52
2019-05-07T12:05:42.351Z,1.22
2019-05-07T12:08:13.241Z,2.02
2019-05-07T12:10:46.067Z,2.30
2019-05-07T12:13:15.763Z,2.27
2019-05-07T12:15:45.495Z,2.60
2019-05-07T12:18:15.189Z,1.90
2019-05-07T12:20:44.894Z,2.25
2019-05-07T12:23:15.368Z,2.25
2019-05-07T12:25:45.077Z,2.08
2019-05-07T12:28:14.861Z,2.25
2019-05-07T12:31:06.708Z,2.22
2019-05-07T12:33:55.469Z,2.00
2019-05-07T12:36:25.309Z,2.37
2019-05-07T12:38:54.936Z,1.92
2019-05-07T12:41:33.266Z,2.33
2019-05-07T12:44:04.246Z,2.62
2019-05-07T12:46:34.538Z,2.00
2019-05-07T12:49:05.134Z,1.77
2019-05-07T12:51:45.115Z,1.70
2019-05-07T12:54:23.983Z,2.37
2019-05-07T12:56:53.617Z,1.55
2019-05-07T12:59:23.433Z,2.37
2019-05-07T13:02:33.940Z,1.82
2019-05-07T13:04:48.779Z,1.90
2019-05-07T13:07:37.530Z,1.70
2019-05-07T13:10:09.847Z,1.92
2019-05-07T13:12:43.021Z,1.52
2019-05-07T13:15:24.420Z,1.77
2019-05-07T13:17:42.758Z,2.35
2019-05-07T13:20:12.756Z,1.42
2019-05-07T13:22:42.787Z,1.55
2019-05-07T13:25:12.948Z,2.12
2019-05-07T13:27:43.004Z,2.40
2019-05-07T13:30:13.102Z,2.72
2019-05-07T13:32:44.993Z,3.20
2019-05-07T13:35:16.463Z,2.50
2019-05-07T13:38:03.476Z,2.25
2019-05-07T13:40:52.714Z,4.20
2019-05-07T13:43:27.736Z,2.17
2019-05-07T13:46:05.398Z,2.47
2019-05-07T13:48:39.681Z,2.98
2019-05-07T13:51:12.295Z,2.72
2019-05-07T13:53:42.767Z,2.55
2019-05-07T13:56:12.909Z,3.27
2019-05-07T13:58:44.005Z,3.25
2019-05-07T14:01:32.791Z,2.05
2019-05-07T14:04:04.103Z,2.42
2019-05-07T14:06:39.554Z,2.20
2019-05-07T14:09:17.997Z,2.83
2019-05-07T14:11:48.067Z,2.00
2019-05-07T14:14:17.763Z,2.35
2019-05-07T14:16:48.586Z,3.27
2019-05-07T14:19:18.335Z,3.15
2019-05-07T14:21:47.972Z,3.33
2019-05-07T14:24:17.981Z,3.12
2019-05-07T14:26:48.815Z,2.42
2019-05-07T14:29:18.568Z,2.77
2019-05-07T14:32:02.161Z,2.70
2019-05-07T14:34:35.093Z,2.62
2019-05-07T14:37:32.663Z,2.90
2019-05-07T14:40:02.804Z,2.70
2019-05-07T14:42:44.927Z,3.98
2019-05-07T14:45:14.935Z,2.92
2019-05-07T14:47:45.614Z,3.35
2019-05-07T14:50:15.755Z,3.30
2019-05-07T14:52:45.505Z,2.70
2019-05-07T14:55:15.337Z,3.70
2019-05-07T14:57:44.973Z,3.87
2019-05-07T15:00:15.033Z,4.10
2019-05-07T15:02:44.948Z,3.58
2019-05-07T15:05:15.371Z,4.37
2019-05-07T15:07:45.140Z,3.98
2019-05-07T15:10:15.440Z,3.20
2019-05-07T15:12:45.426Z,3.42
2019-05-07T15:15:15.287Z,3.75
2019-05-07T15:17:53.523Z,4.17
2019-05-07T15:20:23.391Z,3.35
2019-05-07T15:23:06.510Z,4.78
2019-05-07T15:25:36.529Z,4.30
2019-05-07T15:28:06.978Z,5.22
2019-05-07T15:31:04.683Z,4.37
2019-05-07T15:33:34.415Z,3.22
2019-05-07T15:36:06.534Z,3.90
2019-05-07T15:38:35.920Z,4.53
2019-05-07T15:41:06.104Z,4.08
2019-05-07T15:43:37.111Z,4.60
2019-05-07T15:46:06.754Z,4.08
2019-05-07T15:48:36.502Z,4.45
2019-05-07T15:51:07.213Z,4.35
2019-05-07T15:53:42.810Z,4.70
2019-05-07T15:56:12.584Z,3.72
2019-05-07T15:58:45.875Z,4.17
2019-05-07T16:01:17.321Z,4.22
2019-05-07T16:03:54.404Z,3.62
2019-05-07T16:06:22.009Z,4.00
2019-05-07T16:08:57.557Z,3.60
2019-05-07T16:11:27.197Z,4.65
2019-05-07T16:14:14.601Z,3.65
2019-05-07T16:16:46.416Z,3.10
2019-05-07T16:19:21.143Z,4.90
2019-05-07T16:21:50.863Z,3.70
2019-05-07T16:24:22.445Z,3.85
2019-05-07T16:26:52.337Z,5.33
2019-05-07T16:29:24.285Z,3.87
2019-05-07T16:31:55.532Z,3.72
2019-05-07T16:34:32.386Z,2.90
2019-05-07T16:37:04.458Z,3.45
2019-05-07T16:39:32.772Z,4.45
2019-05-07T16:42:04.927Z,4.12
2019-05-07T16:44:34.536Z,2.60
2019-05-07T16:47:05.517Z,4.42
2019-05-07T16:49:35.160Z,2.60
2019-05-07T16:52:04.944Z,3.92
2019-05-07T16:54:37.492Z,3.00
2019-05-07T16:57:26.943Z,3.60
2019-05-07T16:59:57.900Z,2.95
2019-05-07T17:02:37.779Z,4.35
2019-05-07T17:05:12.419Z,3.33
2019-05-07T17:08:02.474Z,4.70
2019-05-07T17:10:32.974Z,3.42
2019-05-07T17:13:04.715Z,3.67
2019-05-07T17:15:54.494Z,4.53
2019-05-07T17:18:26.013Z,3.92
2019-05-07T17:20:56.573Z,3.72
2019-05-07T17:23:34.418Z,4.40
2019-05-07T17:25:58.130Z,3.72
2019-05-07T17:28:28.413Z,3.17
2019-05-07T17:31:00.074Z,4.03
2019-05-07T17:33:31.822Z,3.98
2019-05-07T17:36:12.302Z,3.15
2019-05-07T17:38:44.284Z,3.95
2019-05-07T17:41:22.175Z,4.33
2019-05-07T17:43:45.862Z,4.45
2019-05-07T17:46:16.683Z,3.45
2019-05-07T17:48:48.167Z,3.87
2019-05-07T17:51:36.927Z,4.42
2019-05-07T17:54:08.232Z,4.45
2019-05-07T17:56:37.865Z,4.67
2019-05-07T17:59:07.494Z,5.12
2019-05-07T18:01:53.011Z,5.00
2019-05-07T18:04:23.080Z,4.15
2019-05-07T18:07:00.431Z,4.45
2019-05-07T18:09:31.747Z,5.12
2019-05-07T18:12:01.272Z,5.97
2019-05-07T18:14:32.619Z,5.50
2019-05-07T18:17:08.398Z,5.78
2019-05-07T18:19:38.044Z,4.95
2019-05-07T18:22:07.688Z,5.83
2019-05-07T18:24:37.337Z,5.25
2019-05-07T18:27:08.691Z,4.92
2019-05-07T18:29:38.320Z,3.37
2019-05-07T18:32:07.943Z,5.85
2019-05-07T18:34:37.569Z,5.45
2019-05-07T18:37:07.889Z,7.22
2019-05-07T18:39:39.153Z,3.33
2019-05-07T18:42:08.780Z,4.70
2019-05-07T18:44:41.715Z,4.00
2019-05-07T18:47:16.323Z,5.15
2019-05-07T18:49:47.576Z,4.80
2019-05-07T18:52:17.302Z,4.33
2019-05-07T18:54:49.058Z,3.75
2019-05-07T18:57:18.812Z,4.00
2019-05-07T18:59:48.436Z,4.05
2019-05-07T19:02:18.171Z,5.12
2019-05-07T19:04:48.134Z,4.53
2019-05-07T19:07:17.772Z,4.55
2019-05-07T19:09:47.854Z,3.37
2019-05-07T19:12:17.976Z,4.80
2019-05-07T19:14:47.612Z,3.80
2019-05-07T19:17:17.369Z,5.53
2019-05-07T19:19:47.999Z,4.12
2019-05-07T19:22:17.899Z,5.83
2019-05-07T19:24:48.652Z,5.58
2019-05-07T19:27:18.558Z,4.67
2019-05-07T19:29:48.204Z,4.60
2019-05-07T19:32:17.911Z,5.10
2019-05-07T19:34:47.631Z,4.87
2019-05-07T19:37:17.292Z,3.98
2019-05-07T19:39:46.926Z,4.65
2019-05-07T19:42:20.017Z,4.70
2019-05-07T19:44:51.412Z,5.05
2019-05-07T19:47:23.065Z,3.75
2019-05-07T19:49:52.535Z,5.62
2019-05-07T19:52:23.116Z,3.77
2019-05-07T19:55:00.792Z,3.85
2019-05-07T19:57:29.004Z,4.37
2019-05-07T19:59:58.621Z,3.85
2019-05-07T20:02:33.031Z,4.12
2019-05-07T20:05:03.584Z,4.12
2019-05-07T20:07:33.284Z,4.40
2019-05-07T20:10:03.077Z,4.40
2019-05-07T20:12:32.775Z,5.28
2019-05-07T20:15:07.460Z,3.58
2019-05-07T20:17:39.418Z,3.60
2019-05-07T20:20:09.299Z,5.10
2019-05-07T20:22:39.104Z,3.83
2019-05-07T20:25:18.103Z,4.37
2019-05-07T20:27:41.861Z,3.25
2019-05-07T20:30:12.256Z,3.90
2019-05-07T20:32:42.835Z,5.47
2019-05-07T20:35:12.817Z,3.83
2019-05-07T20:37:44.096Z,4.55
2019-05-07T20:40:13.798Z,4.80
2019-05-07T20:42:43.484Z,3.90
2019-05-07T20:45:13.288Z,4.87
2019-05-07T20:47:44.091Z,4.20
2019-05-07T20:50:14.057Z,3.75
2019-05-07T20:52:44.767Z,4.05
2019-05-07T20:55:38.161Z,4.47
2019-05-07T20:58:12.693Z,4.40
2019-05-07T21:00:43.516Z,3.40
2019-05-07T21:03:23.787Z,5.17
2019-05-07T21:05:53.478Z,4.40
2019-05-07T21:08:23.257Z,4.42
2019-05-07T21:10:53.777Z,4.47
2019-05-07T21:13:30.910Z,4.75
2019-05-07T21:15:57.663Z,3.60
2019-05-07T21:18:27.307Z,4.25
2019-05-07T21:20:57.016Z,4.20
2019-05-07T21:23:26.740Z,5.60
2019-05-07T21:25:56.428Z,5.17
2019-05-07T21:28:26.147Z,4.58
2019-05-07T21:30:55.889Z,5.65
2019-05-07T21:33:28.115Z,3.42
2019-05-07T21:35:57.803Z,5.40
2019-05-07T21:38:30.043Z,6.90
2019-05-07T21:40:59.720Z,4.87
2019-05-07T21:43:29.363Z,4.00
2019-05-07T21:46:02.297Z,4.45
2019-05-07T21:48:30.318Z,4.72
2019-05-07T21:51:02.376Z,4.90
2019-05-07T21:53:36.652Z,5.17
2019-05-07T21:56:31.188Z,4.42
2019-05-07T21:59:04.158Z,5.83
2019-05-07T22:01:44.895Z,4.65
2019-05-07T22:04:17.839Z,5.78
2019-05-07T22:06:47.525Z,4.75
2019-05-07T22:09:17.314Z,5.03
2019-05-07T22:11:47.064Z,4.35
2019-05-07T22:14:18.222Z,6.60
2019-05-07T22:16:47.907Z,6.87
2019-05-07T22:19:17.599Z,4.70
2019-05-07T22:21:47.204Z,6.22
2019-05-07T22:24:16.898Z,5.47
2019-05-07T22:26:46.523Z,4.65
2019-05-07T22:29:16.141Z,5.40
2019-05-07T22:32:04.896Z,4.47
2019-05-07T22:34:49.293Z,5.83
2019-05-07T22:37:21.956Z,4.40
2019-05-07T22:40:05.614Z,6.90
2019-05-07T22:42:36.847Z,5.17
2019-05-07T22:45:12.256Z,3.67
2019-05-07T22:47:42.104Z,3.65
2019-05-07T22:50:12.114Z,5.75
2019-05-07T22:52:41.743Z,5.33
2019-05-07T22:55:14.194Z,5.28
2019-05-07T22:58:00.933Z,4.78
2019-05-07T23:00:34.256Z,5.28
2019-05-07T23:03:03.981Z,4.83
2019-05-07T23:05:33.603Z,5.65
2019-05-07T23:08:03.225Z,5.00
2019-05-07T23:10:33.386Z,3.52
2019-05-07T23:13:03.200Z,7.05
2019-05-07T23:15:32.903Z,6.33
2019-05-07T23:18:04.415Z,4.95
2019-05-07T23:20:33.856Z,3.85
2019-05-07T23:23:03.479Z,4.87
2019-05-07T23:25:33.103Z,5.33
2019-05-07T23:28:05.201Z,4.50
2019-05-07T23:30:36.484Z,4.70
2019-05-07T23:33:08.307Z,5.65
2019-05-07T23:35:37.988Z,5.75
2019-05-07T23:38:07.626Z,5.87
2019-05-07T23:40:57.762Z,6.12
2019-05-07T23:43:27.372Z,6.17
2019-05-07T23:45:57.014Z,4.45
2019-05-07T23:48:29.066Z,6.55
2019-05-07T23:51:02.105Z,5.92
2019-05-07T23:53:31.864Z,4.60
2019-05-07T23:56:07.560Z,4.60
2019-05-07T23:58:41.978Z,5.40
